Unionville, New York
Current Conditions -  °F | °C
As of 6:53 AM on Thursday 23 Oct 2014 (Local Time) from KFWN Reporting Station
Light Rain Light Rain  
Wind Chill: 52°   Ceiling: 2200
Heat Index: 52°   Visibility: 4mi
Dew Point: 46°   Wind: 6mph
Humidity: 80%   Direction: NA
Pressure: 29.76"   Gusts: NA
Location:  41.3°N, 74.56°W
Report Text: KFWN 231053Z AUTO VRB05KT 4SM -RA FEW015 BKN022 OVC029 11/08 A2976 RMK AO2 RAE12B35 SLP078 P0000 T01110078
Loading
Personal Weather Stations






























Interactive Weather Map New forecast layout! Learn more

10-Day Weather Forecast

Advertisements
Track Severe Weather on mobile